Time;durP1;ratioP1;P1;durP2;ratioP2;P2;SDS_P1;SDS_P2;PMS_P1;PMS_P2;Temp;Humidity;BMP_temperature;BMP_pressure;BME280_temperature;BME280_humidity;BME280_pressure;Samples;Min_cycle;Max_cycle;Signal;HPM_P1;HPM_P2
2021/07/03 00:01:53;;;;;;;;;13.00;10.50;;;;;21.68;61.00;101299.00;4987702;28;45498;-84
2021/07/03 00:04:18;;;;;;;;;15.25;14.00;;;;;21.65;61.37;101291.19;4976107;28;45472;-84
2021/07/03 00:06:44;;;;;;;;;14.75;14.00;;;;;21.62;61.72;101289.59;4987483;28;47203;-85
2021/07/03 00:12:32;;;;;;;;;13.50;11.75;;;;;21.58;61.62;101293.44;4997445;28;45420;-85
2021/07/03 00:14:57;;;;;;;;;13.75;11.00;;;;;21.62;61.39;101299.41;4999678;28;45434;-85
2021/07/03 00:17:26;;;;;;;;;13.50;12.25;;;;;21.60;62.11;101299.53;4998960;28;45293;-89
2021/07/03 00:20:03;;;;;;;;;12.75;11.50;;;;;21.62;61.81;101294.94;4982060;28;46065;-92
2021/07/03 00:22:29;;;;;;;;;13.75;12.25;;;;;21.55;62.10;101283.81;4983226;28;45408;-89
2021/07/03 00:24:57;;;;;;;;;13.75;11.50;;;;;21.59;62.44;101293.34;4999488;28;45378;-92
2021/07/03 00:27:22;;;;;;;;;12.00;12.00;;;;;21.58;62.77;101293.44;4982943;28;47887;-91
2021/07/03 00:29:48;;;;;;;;;13.75;13.00;;;;;21.52;62.58;101284.03;4981667;28;45286;-91
2021/07/03 00:32:13;;;;;;;;;13.00;11.50;;;;;21.53;62.50;101285.72;4989668;28;45208;-91
2021/07/03 00:34:39;;;;;;;;;15.25;15.25;;;;;21.48;62.87;101279.88;4981813;28;45266;-92
2021/07/03 00:37:04;;;;;;;;;12.50;12.50;;;;;21.50;62.87;101296.66;4999503;28;45547;-91
2021/07/03 00:39:29;;;;;;;;;18.50;15.25;;;;;21.47;62.53;101292.38;4973335;28;45311;-92
2021/07/03 00:41:56;;;;;;;;;12.75;12.50;;;;;21.48;62.21;101294.09;4987471;28;45166;-92
2021/07/03 00:48:12;;;;;;;;;12.00;11.50;;;;;21.41;62.62;101283.97;4851457;28;45669;-94
2021/07/03 00:50:37;;;;;;;;;16.00;13.50;;;;;21.40;62.56;101282.25;4942095;28;45480;-90
2021/07/03 00:53:03;;;;;;;;;14.25;11.25;;;;;21.41;63.20;101284.78;4982394;28;45409;-91
2021/07/03 00:55:30;;;;;;;;;15.75;13.50;;;;;21.39;63.17;101301.91;4998598;28;45527;-88
2021/07/03 00:57:55;;;;;;;;;12.50;12.50;;;;;21.32;63.25;101294.31;4999048;28;46401;-88
2021/07/03 01:00:22;;;;;;;;;14.00;12.50;;;;;21.29;63.19;101288.31;4998841;28;45218;-88
2021/07/03 01:02:48;;;;;;;;;18.50;14.00;;;;;21.25;63.42;101287.69;4980628;28;46038;-90
2021/07/03 01:05:15;;;;;;;;;15.25;14.00;;;;;21.21;63.28;101283.53;4980277;28;46184;-86
2021/07/03 01:07:41;;;;;;;;;14.50;10.25;;;;;21.20;63.59;101288.03;4999040;28;46493;-85
2021/07/03 01:10:19;;;;;;;;;16.25;13.00;;;;;21.13;63.69;101279.59;4998365;28;45714;-85
2021/07/03 01:12:44;;;;;;;;;15.00;15.00;;;;;21.18;64.03;101276.59;4998951;28;45246;-86
2021/07/03 01:15:11;;;;;;;;;15.00;14.25;;;;;21.07;64.38;101268.44;4998051;28;45239;-85
2021/07/03 01:17:36;;;;;;;;;16.50;16.00;;;;;21.08;64.46;101281.72;4999048;28;46359;-85
2021/07/03 01:20:04;;;;;;;;;17.50;17.00;;;;;21.05;63.78;101276.59;4997899;28;45281;-85
2021/07/03 01:22:34;;;;;;;;;14.75;14.50;;;;;21.00;64.69;101273.34;4981981;28;45444;-90
2021/07/03 01:25:00;;;;;;;;;15.50;15.50;;;;;20.98;64.85;101269.94;4997663;28;45501;-90
2021/07/03 01:27:25;;;;;;;;;15.25;15.25;;;;;20.89;64.78;101261.56;4997208;28;46564;-77
2021/07/03 06:07:35;;;;;;;;;17.00;16.25;;;;;21.34;65.95;101228.22;5877705;22;46241;-83
2021/07/03 06:10:00;;;;;;;;;15.50;14.25;;;;;21.42;65.27;101240.19;4980254;28;45472;-83
2021/07/03 06:12:26;;;;;;;;;16.50;14.25;;;;;21.45;64.88;101251.53;4978349;28;45463;-82
2021/07/03 06:14:52;;;;;;;;;13.50;13.50;;;;;21.45;65.15;101246.19;4964606;28;46082;-82
2021/07/03 06:17:18;;;;;;;;;14.25;14.00;;;;;21.50;65.00;101242.31;4979550;28;47067;-82
2021/07/03 06:19:44;;;;;;;;;14.00;12.75;;;;;21.57;64.88;101252.47;4983252;28;45395;-82
2021/07/03 06:22:13;;;;;;;;;15.50;12.00;;;;;21.53;64.44;101242.94;4981914;28;45358;-82
2021/07/03 06:24:44;;;;;;;;;15.75;12.00;;;;;21.59;65.22;101247.88;4981801;28;45297;-82
2021/07/03 06:27:10;;;;;;;;;15.50;15.00;;;;;21.61;64.48;101249.59;4981144;28;46340;-80
2021/07/03 06:29:36;;;;;;;;;14.75;14.75;;;;;21.65;64.06;101256.41;4978281;28;45428;-78
2021/07/03 06:32:04;;;;;;;;;16.25;13.50;;;;;21.62;64.64;101256.63;4981345;28;45492;-79
2021/07/03 06:34:29;;;;;;;;;16.00;15.25;;;;;21.61;63.41;101252.25;4967481;28;45418;-78
2021/07/03 06:36:55;;;;;;;;;15.25;14.25;;;;;21.63;64.66;101253.84;4975847;28;46207;-78
2021/07/03 06:39:20;;;;;;;;;12.50;12.50;;;;;21.64;64.28;101250.22;4979340;28;45201;-81
2021/07/03 06:41:45;;;;;;;;;17.25;15.25;;;;;21.72;64.54;101254.13;4979519;28;45332;-81
2021/07/03 06:44:11;;;;;;;;;16.25;14.75;;;;;21.71;64.45;101250.59;4963570;28;45993;-81
2021/07/03 06:46:37;;;;;;;;;13.75;12.00;;;;;21.74;64.41;101241.50;4963419;28;46350;-82
2021/07/03 06:49:02;;;;;;;;;15.50;15.50;;;;;21.80;64.27;101251.78;4982026;28;45661;-82
2021/07/03 06:51:28;;;;;;;;;21.00;17.25;;;;;21.87;64.28;101266.44;4971747;28;45531;-82
2021/07/03 06:53:54;;;;;;;;;14.25;13.50;;;;;21.87;63.63;101255.75;4963303;28;46596;-81
2021/07/03 06:56:20;;;;;;;;;13.75;12.75;;;;;21.92;63.54;101255.41;4976383;28;46003;-81
2021/07/03 06:58:45;;;;;;;;;15.25;12.75;;;;;21.94;63.38;101264.16;4980056;28;45359;-82
2021/07/03 07:01:10;;;;;;;;;17.00;14.75;;;;;21.97;63.81;101274.66;4982704;28;45611;-81
2021/07/03 07:03:36;;;;;;;;;18.25;17.25;;;;;21.96;63.60;101272.06;4965827;28;45515;-83
2021/07/03 07:06:01;;;;;;;;;14.25;12.25;;;;;22.00;63.75;101268.22;4979814;28;45451;-83
2021/07/03 07:08:27;;;;;;;;;29.75;26.75;;;;;22.06;63.92;101275.78;4977939;28;45899;-84
2021/07/03 07:10:53;;;;;;;;;22.50;20.75;;;;;22.08;63.50;101268.47;4979189;28;45667;-85
2021/07/03 07:13:18;;;;;;;;;38.50;33.75;;;;;22.13;63.92;101270.81;4982332;28;45460;-79
2021/07/03 07:15:43;;;;;;;;;36.75;31.50;;;;;22.18;63.52;101271.34;4974890;28;46898;-85
2021/07/03 07:18:09;;;;;;;;;19.00;17.50;;;;;22.27;62.96;101277.84;4980128;28;45283;-83
2021/07/03 07:20:34;;;;;;;;;18.25;18.25;;;;;22.28;62.87;101287.56;4980387;28;45373;-83
2021/07/03 07:22:59;;;;;;;;;19.75;14.25;;;;;22.32;62.93;101278.31;4980570;28;45514;-84
2021/07/03 07:25:25;;;;;;;;;23.50;18.50;;;;;22.37;62.85;101281.50;4976268;28;45522;-84
2021/07/03 07:27:50;;;;;;;;;18.00;15.25;;;;;22.39;62.92;101278.75;4976830;28;45179;-83
2021/07/03 07:30:19;;;;;;;;;14.00;14.00;;;;;22.43;62.96;101282.03;4978300;28;45528;-84
2021/07/03 07:32:45;;;;;;;;;14.00;13.50;;;;;22.44;63.46;101279.25;4981631;28;45638;-84
2021/07/03 07:35:10;;;;;;;;;18.50;15.75;;;;;22.54;62.83;101283.91;4972757;28;45602;-84
2021/07/03 07:37:36;;;;;;;;;13.75;13.25;;;;;22.57;63.17;101283.69;4980676;28;45719;-85
2021/07/03 07:40:01;;;;;;;;;13.75;13.75;;;;;22.64;63.34;101289.41;4979947;28;45521;-85
2021/07/03 07:42:26;;;;;;;;;15.50;14.00;;;;;22.64;62.42;101300.13;4979152;28;45257;-82
2021/07/03 07:44:52;;;;;;;;;15.00;13.25;;;;;22.67;62.89;101305.22;4976867;28;46371;-81
2021/07/03 07:47:17;;;;;;;;;12.50;12.00;;;;;22.66;61.83;101301.72;4978202;28;45741;-81
2021/07/03 07:49:42;;;;;;;;;14.50;14.50;;;;;22.65;62.34;101308.03;4964024;28;45298;-80
2021/07/03 07:52:08;;;;;;;;;15.50;14.50;;;;;22.58;62.46;101306.81;4969277;28;45487;-80
2021/07/03 07:54:33;;;;;;;;;12.00;10.00;;;;;22.48;61.77;101304.81;4971502;28;46324;-83
2021/07/03 07:56:59;;;;;;;;;13.25;13.00;;;;;22.40;62.24;101314.41;4978042;28;46383;-83
2021/07/03 07:59:28;;;;;;;;;11.25;10.50;;;;;22.32;62.16;101307.78;4981172;28;45270;-83
2021/07/03 08:01:53;;;;;;;;;15.75;13.50;;;;;22.33;62.56;101305.97;4976880;28;45517;-83
2021/07/03 08:04:19;;;;;;;;;77.75;63.00;;;;;22.33;61.98;101305.97;4979288;28;45613;-83
2021/07/03 08:06:45;;;;;;;;;15.25;14.00;;;;;22.29;61.99;101296.47;4979023;28;45393;-81
2021/07/03 08:09:10;;;;;;;;;19.75;19.75;;;;;22.29;62.20;101301.81;4975863;28;45812;-80
2021/07/03 08:11:36;;;;;;;;;15.50;14.75;;;;;22.25;62.40;101293.13;4979244;28;45373;-80
2021/07/03 08:14:02;;;;;;;;;17.50;15.50;;;;;22.30;62.11;101304.38;4980932;28;45376;-80
2021/07/03 08:16:28;;;;;;;;;15.00;14.00;;;;;22.32;61.99;101314.97;4970336;28;45837;-80
2021/07/03 08:18:53;;;;;;;;;19.25;17.25;;;;;22.29;61.82;101313.38;4980532;28;45220;-81
2021/07/03 08:21:19;;;;;;;;;17.50;17.00;;;;;22.28;61.71;101316.16;4972915;28;45340;-80
2021/07/03 08:23:44;;;;;;;;;13.50;11.25;;;;;22.24;61.76;101305.69;4978529;28;46215;-81
2021/07/03 08:26:10;;;;;;;;;13.00;12.75;;;;;22.24;62.14;101300.34;4961868;28;45174;-81
2021/07/03 08:28:35;;;;;;;;;18.75;15.25;;;;;22.20;62.27;101298.00;4980302;28;45297;-80
2021/07/03 08:31:01;;;;;;;;;15.00;14.25;;;;;22.17;61.51;101298.22;4978344;28;45291;-80
2021/07/03 08:33:26;;;;;;;;;14.50;14.50;;;;;22.12;61.98;101299.44;4961474;28;45492;-80
2021/07/03 08:35:52;;;;;;;;;17.25;17.25;;;;;22.09;61.88;101290.75;4975064;28;45379;-81
2021/07/03 08:38:17;;;;;;;;;12.25;11.50;;;;;22.07;62.99;101303.41;4979387;28;45249;-80
2021/07/03 08:40:43;;;;;;;;;13.50;12.00;;;;;22.09;63.29;101296.13;4973137;28;45435;-80
2021/07/03 08:43:08;;;;;;;;;8.50;8.25;;;;;22.08;62.22;101299.75;4972900;28;45554;-80
2021/07/03 08:45:34;;;;;;;;;13.00;13.00;;;;;22.12;62.00;101303.94;4962168;28;45314;-80
2021/07/03 08:47:59;;;;;;;;;13.00;13.00;;;;;22.13;61.93;101309.16;4978832;28;45650;-81
2021/07/03 08:50:25;;;;;;;;;14.00;12.75;;;;;22.06;62.29;101302.53;4979609;28;45431;-80
2021/07/03 08:52:50;;;;;;;;;13.75;12.50;;;;;22.06;62.35;101310.56;4970890;28;46457;-80
2021/07/03 08:55:27;;;;;;;;;16.75;13.25;;;;;22.04;62.92;101315.19;4973897;28;47057;-83
2021/07/03 08:57:55;;;;;;;;;14.25;12.75;;;;;22.06;62.10;101323.94;4984863;28;45609;-85
2021/07/03 09:00:34;;;;;;;;;9.00;9.00;;;;;22.05;62.09;101318.72;4983787;28;45175;-86
2021/07/03 09:03:00;;;;;;;;;12.50;10.75;;;;;22.01;61.97;101307.38;4968360;28;46575;-81
2021/07/03 09:05:31;;;;;;;;;12.50;11.50;;;;;22.05;61.92;101314.19;4975508;28;45585;-81
2021/07/03 09:08:07;;;;;;;;;15.75;15.00;;;;;22.05;62.24;101310.69;4976902;28;45639;-81
2021/07/03 09:10:35;;;;;;;;;12.00;12.00;;;;;22.09;62.84;101317.53;4977790;28;45621;-81
2021/07/03 09:13:01;;;;;;;;;11.75;11.75;;;;;22.10;62.37;101325.44;4976066;28;45756;-81
2021/07/03 09:15:30;;;;;;;;;12.50;12.50;;;;;22.12;62.13;101307.47;4975889;28;46051;-81
2021/07/03 09:17:56;;;;;;;;;14.75;12.50;;;;;22.23;62.19;101319.19;4992601;28;45368;-83
2021/07/03 09:20:48;;;;;;;;;14.50;14.25;;;;;22.20;61.94;101304.19;4979241;28;45290;-81
2021/07/03 09:23:17;;;;;;;;;14.00;14.00;;;;;22.18;61.83;101321.34;4978355;28;46204;-80
2021/07/03 09:25:45;;;;;;;;;13.75;13.50;;;;;22.07;62.89;101316.78;4975719;28;45547;-80
2021/07/03 09:28:16;;;;;;;;;15.00;15.00;;;;;22.06;62.15;101312.38;4988861;28;45677;-81
2021/07/03 09:30:47;;;;;;;;;14.50;13.50;;;;;22.07;62.22;101316.78;4990417;28;45476;-81
2021/07/03 09:33:21;;;;;;;;;13.50;11.50;;;;;21.99;62.03;101326.22;4979271;28;45830;-81
2021/07/03 09:36:10;;;;;;;;;10.00;10.00;;;;;21.86;62.34;101323.59;4978533;28;45662;-81
2021/07/03 09:38:41;;;;;;;;;13.50;12.50;;;;;21.86;62.81;101333.38;4967757;28;45411;-81
2021/07/03 09:41:06;;;;;;;;;10.75;10.75;;;;;21.91;63.04;101333.94;4980383;28;46942;-81
2021/07/03 09:43:32;;;;;;;;;14.50;13.00;;;;;21.94;62.75;101331.06;4984146;28;45331;-81
2021/07/03 09:45:57;;;;;;;;;15.25;12.25;;;;;22.01;63.01;101336.81;4979578;28;45597;-81
2021/07/03 09:48:23;;;;;;;;;12.50;11.50;;;;;22.03;63.00;101338.41;4969695;28;45290;-79
2021/07/03 09:50:48;;;;;;;;;14.25;13.50;;;;;22.02;62.35;101334.03;4980988;28;45847;-82
2021/07/03 09:53:14;;;;;;;;;15.50;11.25;;;;;22.07;63.01;101343.56;4990695;28;45425;-83
2021/07/03 09:55:39;;;;;;;;;11.75;11.75;;;;;22.08;62.40;101347.91;4974833;28;45377;-83
2021/07/03 09:58:08;;;;;;;;;12.25;11.25;;;;;22.13;62.65;101353.78;4986018;28;45404;-83
2021/07/03 10:00:34;;;;;;;;;13.75;12.75;;;;;22.12;62.26;101344.06;4948797;28;46376;-83
2021/07/03 10:02:59;;;;;;;;;13.50;12.25;;;;;22.02;62.76;101357.28;4974482;28;45538;-83
2021/07/03 10:05:26;;;;;;;;;15.00;13.25;;;;;21.96;62.60;101352.34;4981202;28;45758;-83
2021/07/03 10:08:01;;;;;;;;;15.00;12.50;;;;;21.91;62.56;101350.00;4972098;28;45357;-83
2021/07/03 10:10:28;;;;;;;;;10.00;9.75;;;;;21.83;62.09;101357.72;4985969;28;45324;-83
2021/07/03 10:13:10;;;;;;;;;15.75;15.25;;;;;21.79;62.39;101355.25;4982159;28;45666;-82
2021/07/03 10:15:36;;;;;;;;;12.25;12.00;;;;;21.80;62.39;101348.09;4969651;28;45377;-83
2021/07/03 10:18:11;;;;;;;;;12.50;10.50;;;;;21.81;62.34;101342.63;4978545;28;45356;-82
2021/07/03 10:20:37;;;;;;;;;15.00;12.25;;;;;21.88;62.36;101335.03;4978049;28;46995;-82
2021/07/03 10:23:03;;;;;;;;;14.50;11.25;;;;;21.95;61.78;101327.44;4979890;28;45714;-81
2021/07/03 10:25:42;;;;;;;;;12.25;12.25;;;;;21.95;62.27;101330.09;4981865;28;45469;-82
2021/07/03 10:28:11;;;;;;;;;14.00;13.75;;;;;21.97;62.09;101335.34;4978144;28;45970;-81
2021/07/03 10:30:39;;;;;;;;;15.50;14.50;;;;;22.00;61.84;101330.59;4977515;28;45536;-81
2021/07/03 10:33:12;;;;;;;;;11.50;11.50;;;;;22.02;61.75;101328.69;4977869;28;45325;-80
2021/07/03 10:35:44;;;;;;;;;14.25;12.25;;;;;22.11;61.48;101328.97;4978731;28;45409;-80
2021/07/03 10:38:30;;;;;;;;;12.00;10.50;;;;;22.28;61.86;101338.44;4977612;28;45494;-80
2021/07/03 10:41:16;;;;;;;;;14.75;12.50;;;;;22.36;62.44;101344.09;4977360;28;45604;-81
2021/07/03 10:43:43;;;;;;;;;13.75;11.50;;;;;22.40;61.44;101341.19;4974490;28;48317;-81
2021/07/03 10:46:08;;;;;;;;;13.00;12.00;;;;;22.39;61.85;101348.38;4990327;28;45286;-80
2021/07/03 10:48:34;;;;;;;;;10.75;9.50;;;;;22.35;61.07;101344.19;4982833;28;45269;-80
2021/07/03 10:51:10;;;;;;;;;13.50;12.75;;;;;22.26;61.28;101340.38;4981316;28;46092;-81
2021/07/03 10:53:35;;;;;;;;;12.25;12.25;;;;;22.22;61.78;101338.91;4982168;28;45653;-81
2021/07/03 10:56:21;;;;;;;;;14.75;13.25;;;;;22.19;60.98;101350.69;4980964;28;45194;-81
2021/07/03 10:58:46;;;;;;;;;14.25;12.75;;;;;22.03;60.92;101338.41;4972663;28;45459;-83
2021/07/03 11:01:14;;;;;;;;;12.25;12.00;;;;;21.95;61.36;101335.47;4986430;28;45212;-83
2021/07/03 11:03:48;;;;;;;;;17.00;12.50;;;;;21.88;60.76;101331.47;4994416;28;45406;-81
2021/07/03 11:06:19;;;;;;;;;15.00;11.00;;;;;21.83;60.61;101344.34;4987669;28;45658;-81
2021/07/03 11:08:45;;;;;;;;;11.25;10.00;;;;;21.75;60.57;101332.38;4981531;28;45463;-81
2021/07/03 11:11:12;;;;;;;;;11.50;11.25;;;;;21.75;60.57;101343.06;4980798;28;45417;-81
2021/07/03 11:13:38;;;;;;;;;8.50;8.25;;;;;21.77;59.67;101334.91;4981580;28;45657;-81
2021/07/03 11:16:08;;;;;;;;;8.50;7.25;;;;;21.79;58.99;101336.53;4977584;28;45523;-81
2021/07/03 11:18:36;;;;;;;;;10.75;9.50;;;;;21.84;59.30;101330.84;4982870;28;45493;-81
2021/07/03 11:21:06;;;;;;;;;11.50;9.75;;;;;21.89;58.74;101333.22;4992422;28;45470;-81
2021/07/03 11:23:33;;;;;;;;;7.50;7.00;;;;;21.97;57.41;101335.34;4981426;28;45615;-81
2021/07/03 11:25:58;;;;;;;;;12.25;10.00;;;;;22.02;58.79;101328.69;4978592;28;45503;-81
2021/07/03 11:28:25;;;;;;;;;6.50;5.50;;;;;22.08;55.44;101327.38;4980603;28;45995;-81
2021/07/03 11:30:58;;;;;;;;;5.25;5.25;;;;;22.19;54.55;101329.28;4979922;28;45431;-81
2021/07/03 11:33:32;;;;;;;;;9.75;7.25;;;;;22.23;55.17;101320.03;4967727;28;46312;-81
2021/07/03 11:35:58;;;;;;;;;10.25;10.25;;;;;22.31;56.74;101316.78;4980532;28;45352;-81
2021/07/03 11:38:26;;;;;;;;;7.00;5.75;;;;;22.32;55.76;101315.81;4988629;28;45234;-82
2021/07/03 11:41:00;;;;;;;;;9.75;9.00;;;;;22.37;56.56;101323.53;4985885;28;45380;-82
2021/07/03 11:43:27;;;;;;;;;10.25;8.00;;;;;22.31;56.86;101322.16;4981311;28;45416;-82
2021/07/03 11:45:54;;;;;;;;;11.50;7.50;;;;;22.28;56.98;101316.16;4980651;28;45726;-82
2021/07/03 11:48:22;;;;;;;;;8.25;8.00;;;;;22.22;56.58;101323.69;4982019;28;45501;-82
2021/07/03 11:50:50;;;;;;;;;10.00;9.25;;;;;22.08;56.93;101318.47;4981608;28;45417;-81
2021/07/03 11:53:18;;;;;;;;;6.00;6.00;;;;;21.95;56.03;101310.50;4981166;28;46380;-82
2021/07/03 11:55:54;;;;;;;;;4.25;4.25;;;;;21.92;55.95;101311.59;4980509;28;45755;-82
2021/07/03 11:58:26;;;;;;;;;7.00;6.50;;;;;21.95;54.74;101314.06;4981564;28;45469;-84
2021/07/03 12:00:55;;;;;;;;;8.25;8.25;;;;;21.97;56.13;101320.13;4981681;28;45425;-84
2021/07/03 12:03:27;;;;;;;;;6.00;6.00;;;;;22.00;55.64;101319.91;4981534;28;45524;-84
2021/07/03 12:05:55;;;;;;;;;6.00;6.00;;;;;21.97;55.96;101314.78;4981433;28;45453;-85
2021/07/03 12:08:21;;;;;;;;;5.75;5.50;;;;;21.87;55.27;101314.59;4979827;28;45350;-84
2021/07/03 12:10:59;;;;;;;;;4.75;4.25;;;;;21.84;54.35;101314.78;4981640;28;45463;-82
2021/07/03 12:13:30;;;;;;;;;4.75;4.75;;;;;21.75;54.04;101305.63;4965846;28;47489;-82
2021/07/03 12:15:59;;;;;;;;;4.75;4.25;;;;;21.69;53.01;101314.94;4964564;28;45528;-81
2021/07/03 12:18:28;;;;;;;;;3.25;3.25;;;;;21.62;52.42;101310.97;4981805;28;45312;-83
2021/07/03 12:21:05;;;;;;;;;4.00;4.00;;;;;21.68;52.69;101304.34;4980214;28;45452;-83
2021/07/03 12:23:31;;;;;;;;;4.00;4.00;;;;;21.68;53.16;101293.66;4972626;28;46457;-83
2021/07/03 12:25:56;;;;;;;;;3.50;3.00;;;;;21.67;52.18;101303.50;4981389;28;45549;-83
2021/07/03 12:28:22;;;;;;;;;3.75;3.00;;;;;21.63;51.68;101296.63;4980935;28;45410;-83
2021/07/03 12:30:47;;;;;;;;;4.25;4.25;;;;;21.73;53.07;101299.50;4981535;28;45576;-84
2021/07/03 12:33:13;;;;;;;;;4.00;4.00;;;;;21.84;52.97;101297.88;4981806;28;45412;-82
2021/07/03 12:35:40;;;;;;;;;4.25;4.25;;;;;21.84;52.79;101292.53;4981325;28;45206;-83
2021/07/03 12:38:07;;;;;;;;;4.00;4.00;;;;;21.89;52.73;101298.44;4981472;28;45372;-83
2021/07/03 12:40:40;;;;;;;;;5.75;5.75;;;;;21.84;52.39;101284.50;4981258;28;45480;-82
2021/07/03 12:43:06;;;;;;;;;4.00;4.00;;;;;21.79;52.47;101284.81;4979958;28;46439;-83
2021/07/03 12:45:32;;;;;;;;;7.00;5.75;;;;;21.77;53.02;101289.44;4981031;28;45437;-83
2021/07/03 12:48:08;;;;;;;;;7.25;7.25;;;;;21.76;53.44;101293.94;4980237;28;45475;-83
2021/07/03 12:50:33;;;;;;;;;0.00;0.00;;;;;21.75;53.20;101300.25;4980613;28;45474;-83
2021/07/03 12:53:17;;;;;;;;;6.00;6.00;;;;;21.74;53.48;101290.50;4979659;28;45484;-83
2021/07/03 12:55:45;;;;;;;;;5.00;5.00;;;;;21.71;53.93;101296.09;4978864;28;46370;-83
2021/07/03 12:58:28;;;;;;;;;8.50;8.00;;;;;21.71;53.93;101277.34;4980675;28;45292;-83
2021/07/03 13:00:54;;;;;;;;;7.00;7.00;;;;;21.69;53.67;101281.97;4966916;28;46617;-83
2021/07/03 13:03:21;;;;;;;;;8.75;7.25;;;;;21.68;53.73;101285.63;4987082;28;45364;-84
2021/07/03 13:05:48;;;;;;;;;7.00;6.00;;;;;21.68;53.35;101294.47;4980426;28;45305;-83
2021/07/03 13:08:14;;;;;;;;;6.00;6.00;;;;;21.69;53.88;101287.31;4979116;28;45209;-83
2021/07/03 13:10:39;;;;;;;;;7.75;6.00;;;;;21.77;53.71;101286.78;4981115;28;45456;-83
2021/07/03 13:13:06;;;;;;;;;6.75;6.00;;;;;21.80;53.31;101278.53;4985085;28;45233;-83
2021/07/03 13:15:32;;;;;;;;;5.25;5.25;;;;;21.82;53.43;101276.59;4979846;28;45370;-83
2021/07/03 13:17:57;;;;;;;;;6.00;5.75;;;;;21.84;53.41;101277.31;4979947;28;45666;-83
2021/07/03 13:20:22;;;;;;;;;6.50;6.50;;;;;21.77;53.85;101271.56;4980109;28;45487;-83
2021/07/03 13:22:48;;;;;;;;;6.25;6.25;;;;;21.73;53.71;101271.91;4979598;28;46351;-83
2021/07/03 13:25:13;;;;;;;;;8.50;6.75;;;;;21.72;53.83;101280.88;4980293;28;45340;-83
2021/07/03 13:27:39;;;;;;;;;5.50;5.50;;;;;21.66;54.13;101276.84;4979926;28;45410;-83
2021/07/03 13:30:05;;;;;;;;;5.50;5.50;;;;;21.65;54.44;101283.16;4979025;28;45512;-83
2021/07/03 13:32:30;;;;;;;;;7.50;6.50;;;;;21.61;54.61;101271.81;4979823;28;45462;-83
2021/07/03 13:34:55;;;;;;;;;8.75;7.00;;;;;21.62;54.99;101278.03;4979939;28;45422;-83
2021/07/03 13:37:21;;;;;;;;;7.75;5.75;;;;;21.65;55.00;101275.13;4980020;28;45376;-83
2021/07/03 13:39:46;;;;;;;;;8.75;8.25;;;;;21.61;55.18;101276.34;4979591;28;45463;-82
2021/07/03 13:42:12;;;;;;;;;5.00;4.00;;;;;21.60;55.18;101270.13;4961993;28;47178;-83
2021/07/03 13:44:37;;;;;;;;;6.00;6.00;;;;;21.61;55.45;101265.63;4979937;28;45384;-84
2021/07/03 13:47:03;;;;;;;;;8.00;8.00;;;;;21.62;55.60;101270.88;4980552;28;45396;-84
2021/07/03 13:49:28;;;;;;;;;7.75;7.50;;;;;21.64;55.69;101276.09;4979027;28;45463;-83
2021/07/03 13:51:54;;;;;;;;;8.75;8.25;;;;;21.66;56.08;101258.09;4979636;28;45395;-83
2021/07/03 13:54:19;;;;;;;;;10.50;6.75;;;;;21.74;56.10;101261.09;4979891;28;45411;-83
2021/07/03 13:56:44;;;;;;;;;6.00;3.75;;;;;21.81;55.93;101259.69;4979727;28;45273;-83
2021/07/03 13:59:10;;;;;;;;;8.25;8.25;;;;;21.88;56.16;101264.59;4979379;28;45408;-83
2021/07/03 14:01:36;;;;;;;;;6.00;6.00;;;;;21.91;56.20;101262.56;4979491;28;45975;-84
2021/07/03 14:04:03;;;;;;;;;7.75;6.75;;;;;21.93;56.36;101262.44;4979721;28;45235;-83
2021/07/03 14:06:30;;;;;;;;;8.75;7.25;;;;;21.90;56.26;101258.16;4980181;28;45460;-84
2021/07/03 14:08:55;;;;;;;;;6.00;6.00;;;;;21.88;56.10;101260.09;4987826;28;45550;-82
2021/07/03 14:11:21;;;;;;;;;6.00;6.00;;;;;21.92;55.75;101252.72;4982026;28;45376;-84
2021/07/03 14:13:46;;;;;;;;;6.75;6.75;;;;;21.95;55.94;101263.22;4979177;28;45466;-84
2021/07/03 14:16:11;;;;;;;;;5.75;5.75;;;;;21.88;55.98;101253.91;4979388;28;45518;-82
2021/07/03 14:18:38;;;;;;;;;6.25;5.75;;;;;21.89;56.36;101260.97;4979348;28;45397;-84
2021/07/03 14:21:03;;;;;;;;;7.75;6.00;;;;;21.86;56.89;101259.38;4982668;28;45559;-84
2021/07/03 14:23:30;;;;;;;;;5.00;5.00;;;;;21.89;57.10;101248.44;4982917;28;45295;-84
2021/07/03 14:25:55;;;;;;;;;6.00;6.00;;;;;21.97;56.41;101250.56;4983229;28;45247;-84
2021/07/03 14:28:20;;;;;;;;;6.25;6.25;;;;;21.95;56.96;101238.25;4982361;28;45515;-84
2021/07/03 14:30:46;;;;;;;;;7.25;5.75;;;;;21.90;57.10;101249.31;4982951;28;46133;-84
2021/07/03 14:33:12;;;;;;;;;7.00;6.00;;;;;21.91;57.30;101245.66;4983033;28;45287;-84
2021/07/03 14:35:38;;;;;;;;;6.00;6.00;;;;;21.91;57.43;101241.16;4983077;28;45273;-84
2021/07/03 14:38:03;;;;;;;;;7.50;7.25;;;;;21.87;57.72;101244.19;4981407;28;45555;-84
2021/07/03 14:40:28;;;;;;;;;7.00;6.50;;;;;21.96;57.70;101247.97;4982725;28;45521;-84
2021/07/03 14:42:55;;;;;;;;;6.25;6.00;;;;;22.06;57.84;101250.84;4982257;28;45463;-85
2021/07/03 14:45:21;;;;;;;;;6.25;6.00;;;;;22.13;57.40;101246.72;4982710;28;45493;-81
2021/07/03 14:47:46;;;;;;;;;8.00;6.00;;;;;22.10;57.26;101239.78;4981645;28;45718;-81
2021/07/03 14:50:12;;;;;;;;;5.00;5.00;;;;;21.94;57.84;101224.03;4982402;28;46304;-81
2021/07/03 14:52:38;;;;;;;;;5.75;5.75;;;;;21.91;58.11;101235.81;4981754;28;45384;-81
2021/07/03 14:55:04;;;;;;;;;6.00;6.00;;;;;21.97;58.04;101228.28;4982284;28;45363;-81
2021/07/03 14:57:29;;;;;;;;;6.25;4.00;;;;;21.97;57.85;101229.16;4981734;28;45211;-81
2021/07/03 14:59:55;;;;;;;;;6.00;6.00;;;;;22.01;57.93;101227.94;4982283;28;45351;-81
2021/07/03 15:02:20;;;;;;;;;9.00;6.00;;;;;21.99;58.16;101226.34;4982730;28;45238;-81
2021/07/03 15:04:45;;;;;;;;;5.25;4.75;;;;;21.92;58.17;101221.47;4982092;28;45209;-82
2021/07/03 15:07:11;;;;;;;;;5.75;5.75;;;;;21.91;57.98;101227.78;4981850;28;45445;-81
2021/07/03 15:09:36;;;;;;;;;7.00;6.00;;;;;21.92;58.52;101220.63;4996024;28;46195;-81
2021/07/03 15:12:02;;;;;;;;;6.25;5.75;;;;;21.91;58.84;101225.09;4996046;28;45190;-81
2021/07/03 15:14:27;;;;;;;;;6.50;6.50;;;;;22.03;59.41;101228.69;4991345;28;45239;-81
2021/07/03 15:16:53;;;;;;;;;6.50;6.50;;;;;22.03;58.77;101217.13;4981517;28;45495;-81
2021/07/03 15:19:18;;;;;;;;;4.75;4.75;;;;;22.07;58.61;101221.28;4984920;28;45593;-81
2021/07/03 15:21:43;;;;;;;;;6.00;6.00;;;;;22.08;58.41;101220.31;5001481;28;45370;-81
2021/07/03 15:24:09;;;;;;;;;3.75;3.75;;;;;22.12;58.90;101227.16;4989121;28;45781;-81
2021/07/03 15:26:34;;;;;;;;;4.00;4.00;;;;;22.23;58.64;101229.00;4995317;28;45460;-81
2021/07/03 15:29:00;;;;;;;;;6.75;5.50;;;;;22.24;58.61;101228.06;4990687;28;46072;-81
2021/07/03 15:31:26;;;;;;;;;6.00;6.00;;;;;22.24;59.20;101219.16;4988325;28;45360;-81
2021/07/03 15:33:51;;;;;;;;;4.00;3.75;;;;;22.38;59.31;101231.50;4988565;28;45381;-81
2021/07/03 15:36:16;;;;;;;;;7.00;6.25;;;;;22.39;59.25;101227.00;4998194;28;45408;-81
2021/07/03 15:38:42;;;;;;;;;4.50;4.50;;;;;22.42;58.24;101221.41;4981090;28;45441;-81
2021/07/03 15:41:07;;;;;;;;;3.25;2.00;;;;;22.36;58.13;101218.25;4991439;28;45317;-81
2021/07/03 15:43:34;;;;;;;;;5.25;4.75;;;;;22.39;58.74;101230.53;4985719;28;45485;-81
2021/07/03 15:46:00;;;;;;;;;6.50;4.50;;;;;22.36;58.00;101225.41;4991464;28;47300;-81
2021/07/03 15:48:26;;;;;;;;;5.75;5.75;;;;;22.27;58.95;101218.94;4981787;28;46505;-81
2021/07/03 15:50:52;;;;;;;;;4.00;4.00;;;;;22.25;59.09;101221.72;4995829;28;45470;-81
2021/07/03 15:53:17;;;;;;;;;4.25;4.00;;;;;22.18;58.97;101206.22;5001542;28;45226;-81
2021/07/03 15:55:45;;;;;;;;;4.00;4.00;;;;;22.18;58.57;101216.94;4992036;28;45413;-81
2021/07/03 15:58:11;;;;;;;;;5.00;4.00;;;;;22.12;58.69;101212.91;4984337;28;46636;-81
2021/07/03 16:00:36;;;;;;;;;5.25;5.00;;;;;22.02;58.78;101212.75;4986216;28;45727;-81
2021/07/03 16:03:01;;;;;;;;;4.50;3.25;;;;;22.06;60.77;101210.69;4987433;28;45361;-81